sensor_id;sensor_type;location;lat;lon;timestamp;temperature;humidity
12060;DHT22;6091;51.432;6.880;2023-04-25T00:00:19;22.90;37.50
12060;DHT22;6091;51.432;6.880;2023-04-25T00:02:46;22.90;37.40
12060;DHT22;6091;51.432;6.880;2023-04-25T00:05:13;22.80;36.90
12060;DHT22;6091;51.432;6.880;2023-04-25T00:07:42;22.90;36.90
12060;DHT22;6091;51.432;6.880;2023-04-25T00:10:09;22.80;37.40
12060;DHT22;6091;51.432;6.880;2023-04-25T00:12:38;22.90;36.90
12060;DHT22;6091;51.432;6.880;2023-04-25T00:15:06;22.80;36.90
12060;DHT22;6091;51.432;6.880;2023-04-25T00:17:33;22.80;36.90
12060;DHT22;6091;51.432;6.880;2023-04-25T00:20:02;22.80;37.40
12060;DHT22;6091;51.432;6.880;2023-04-25T00:22:32;22.80;36.90
12060;DHT22;6091;51.432;6.880;2023-04-25T00:25:00;22.80;37.40
12060;DHT22;6091;51.432;6.880;2023-04-25T00:27:27;22.80;36.90
12060;DHT22;6091;51.432;6.880;2023-04-25T00:29:55;22.90;36.90
12060;DHT22;6091;51.432;6.880;2023-04-25T00:32:21;22.70;36.80
12060;DHT22;6091;51.432;6.880;2023-04-25T00:34:48;22.70;36.80
12060;DHT22;6091;51.432;6.880;2023-04-25T00:37:15;22.80;36.90
12060;DHT22;6091;51.432;6.880;2023-04-25T00:39:42;22.90;36.90
12060;DHT22;6091;51.432;6.880;2023-04-25T00:42:10;22.90;36.90
12060;DHT22;6091;51.432;6.880;2023-04-25T00:44:37;22.80;36.90
12060;DHT22;6091;51.432;6.880;2023-04-25T00:47:05;22.80;36.90
12060;DHT22;6091;51.432;6.880;2023-04-25T00:49:33;22.80;37.50
12060;DHT22;6091;51.432;6.880;2023-04-25T00:52:00;22.70;36.90
12060;DHT22;6091;51.432;6.880;2023-04-25T00:54:27;22.70;36.90
12060;DHT22;6091;51.432;6.880;2023-04-25T00:56:54;22.70;36.90
12060;DHT22;6091;51.432;6.880;2023-04-25T00:59:21;22.70;36.90
12060;DHT22;6091;51.432;6.880;2023-04-25T01:01:49;22.70;36.90
12060;DHT22;6091;51.432;6.880;2023-04-25T01:04:17;22.80;37.40
12060;DHT22;6091;51.432;6.880;2023-04-25T01:06:44;22.80;37.50
12060;DHT22;6091;51.432;6.880;2023-04-25T01:09:12;22.70;36.90
12060;DHT22;6091;51.432;6.880;2023-04-25T01:11:40;22.70;37.40
12060;DHT22;6091;51.432;6.880;2023-04-25T01:14:07;22.80;36.90
12060;DHT22;6091;51.432;6.880;2023-04-25T01:16:34;22.70;37.00
12060;DHT22;6091;51.432;6.880;2023-04-25T01:21:32;22.70;36.90
12060;DHT22;6091;51.432;6.880;2023-04-25T01:23:59;22.80;36.90
12060;DHT22;6091;51.432;6.880;2023-04-25T01:26:26;22.70;37.50
12060;DHT22;6091;51.432;6.880;2023-04-25T01:28:54;22.80;36.90
12060;DHT22;6091;51.432;6.880;2023-04-25T01:31:21;22.70;37.40
12060;DHT22;6091;51.432;6.880;2023-04-25T01:33:48;22.70;36.90
12060;DHT22;6091;51.432;6.880;2023-04-25T01:36:16;22.70;37.50
12060;DHT22;6091;51.432;6.880;2023-04-25T01:38:44;22.70;36.90
12060;DHT22;6091;51.432;6.880;2023-04-25T01:41:14;22.70;36.90
12060;DHT22;6091;51.432;6.880;2023-04-25T01:43:41;22.70;37.00
12060;DHT22;6091;51.432;6.880;2023-04-25T01:46:09;22.80;37.00
12060;DHT22;6091;51.432;6.880;2023-04-25T01:48:38;22.70;37.50
12060;DHT22;6091;51.432;6.880;2023-04-25T01:51:05;22.70;36.90
12060;DHT22;6091;51.432;6.880;2023-04-25T01:53:32;22.60;36.90
12060;DHT22;6091;51.432;6.880;2023-04-25T01:55:59;22.70;36.90
12060;DHT22;6091;51.432;6.880;2023-04-25T01:58:26;22.70;37.50
12060;DHT22;6091;51.432;6.880;2023-04-25T02:00:53;22.70;37.50
12060;DHT22;6091;51.432;6.880;2023-04-25T02:03:20;22.70;37.00
12060;DHT22;6091;51.432;6.880;2023-04-25T02:05:47;22.70;36.90
12060;DHT22;6091;51.432;6.880;2023-04-25T02:08:17;22.60;36.90
12060;DHT22;6091;51.432;6.880;2023-04-25T02:10:44;22.70;37.00
12060;DHT22;6091;51.432;6.880;2023-04-25T02:13:12;22.70;37.00
12060;DHT22;6091;51.432;6.880;2023-04-25T02:15:39;22.60;36.90
12060;DHT22;6091;51.432;6.880;2023-04-25T02:18:06;22.60;36.90
12060;DHT22;6091;51.432;6.880;2023-04-25T02:20:33;22.60;36.90
12060;DHT22;6091;51.432;6.880;2023-04-25T02:23:00;22.70;37.00
12060;DHT22;6091;51.432;6.880;2023-04-25T02:25:27;22.60;36.90
12060;DHT22;6091;51.432;6.880;2023-04-25T02:27:57;22.60;36.90
12060;DHT22;6091;51.432;6.880;2023-04-25T02:30:24;22.60;36.90
12060;DHT22;6091;51.432;6.880;2023-04-25T02:32:52;22.30;36.70
12060;DHT22;6091;51.432;6.880;2023-04-25T02:35:19;22.60;38.10
12060;DHT22;6091;51.432;6.880;2023-04-25T02:37:46;22.60;37.50
12060;DHT22;6091;51.432;6.880;2023-04-25T02:40:13;22.60;36.90
12060;DHT22;6091;51.432;6.880;2023-04-25T02:42:43;22.60;37.50
12060;DHT22;6091;51.432;6.880;2023-04-25T02:45:12;22.60;37.50
12060;DHT22;6091;51.432;6.880;2023-04-25T02:47:39;22.60;37.50
12060;DHT22;6091;51.432;6.880;2023-04-25T02:50:06;22.60;37.50
12060;DHT22;6091;51.432;6.880;2023-04-25T02:52:34;22.60;36.90
12060;DHT22;6091;51.432;6.880;2023-04-25T02:55:01;22.60;36.90
12060;DHT22;6091;51.432;6.880;2023-04-25T02:57:28;22.60;36.90
12060;DHT22;6091;51.432;6.880;2023-04-25T02:59:55;22.60;37.50
12060;DHT22;6091;51.432;6.880;2023-04-25T03:02:22;22.50;36.90
12060;DHT22;6091;51.432;6.880;2023-04-25T03:04:49;22.60;36.90
12060;DHT22;6091;51.432;6.880;2023-04-25T03:07:16;22.50;36.90
12060;DHT22;6091;51.432;6.880;2023-04-25T03:09:43;22.50;36.90
12060;DHT22;6091;51.432;6.880;2023-04-25T03:12:10;22.50;36.90
12060;DHT22;6091;51.432;6.880;2023-04-25T03:14:37;22.60;37.00
12060;DHT22;6091;51.432;6.880;2023-04-25T03:17:04;22.50;36.90
12060;DHT22;6091;51.432;6.880;2023-04-25T03:19:31;22.50;36.90
12060;DHT22;6091;51.432;6.880;2023-04-25T03:21:58;22.60;37.00
12060;DHT22;6091;51.432;6.880;2023-04-25T03:24:26;22.60;37.00
12060;DHT22;6091;51.432;6.880;2023-04-25T03:26:53;22.50;38.00
12060;DHT22;6091;51.432;6.880;2023-04-25T03:29:20;22.60;37.00
12060;DHT22;6091;51.432;6.880;2023-04-25T03:31:51;22.50;37.50
12060;DHT22;6091;51.432;6.880;2023-04-25T03:34:18;22.50;36.90
12060;DHT22;6091;51.432;6.880;2023-04-25T03:36:45;22.40;37.40
12060;DHT22;6091;51.432;6.880;2023-04-25T03:39:12;22.60;37.00
12060;DHT22;6091;51.432;6.880;2023-04-25T03:41:39;22.40;36.90
12060;DHT22;6091;51.432;6.880;2023-04-25T03:44:06;22.50;37.00
12060;DHT22;6091;51.432;6.880;2023-04-25T03:46:33;22.50;37.00
12060;DHT22;6091;51.432;6.880;2023-04-25T03:49:00;22.50;36.90
12060;DHT22;6091;51.432;6.880;2023-04-25T03:51:27;22.40;36.90
12060;DHT22;6091;51.432;6.880;2023-04-25T03:53:54;22.40;36.90
12060;DHT22;6091;51.432;6.880;2023-04-25T03:56:21;22.40;36.90
12060;DHT22;6091;51.432;6.880;2023-04-25T03:58:48;22.60;37.00
12060;DHT22;6091;51.432;6.880;2023-04-25T04:01:15;22.50;36.90
12060;DHT22;6091;51.432;6.880;2023-04-25T04:03:42;22.40;36.90
12060;DHT22;6091;51.432;6.880;2023-04-25T04:06:10;22.50;37.60
12060;DHT22;6091;51.432;6.880;2023-04-25T04:08:37;22.50;37.50
12060;DHT22;6091;51.432;6.880;2023-04-25T04:11:04;22.50;37.50
12060;DHT22;6091;51.432;6.880;2023-04-25T04:13:34;22.40;36.90
12060;DHT22;6091;51.432;6.880;2023-04-25T04:16:02;22.40;36.90
12060;DHT22;6091;51.432;6.880;2023-04-25T04:18:30;22.40;36.90
12060;DHT22;6091;51.432;6.880;2023-04-25T04:20:59;22.40;36.90
12060;DHT22;6091;51.432;6.880;2023-04-25T04:23:27;22.50;37.50
12060;DHT22;6091;51.432;6.880;2023-04-25T04:25:54;22.50;37.50
12060;DHT22;6091;51.432;6.880;2023-04-25T04:28:24;22.40;36.90
12060;DHT22;6091;51.432;6.880;2023-04-25T04:30:53;22.40;36.90
12060;DHT22;6091;51.432;6.880;2023-04-25T04:33:20;22.50;37.00
12060;DHT22;6091;51.432;6.880;2023-04-25T04:35:47;22.50;37.00
12060;DHT22;6091;51.432;6.880;2023-04-25T04:38:15;22.40;36.90
12060;DHT22;6091;51.432;6.880;2023-04-25T04:40:42;22.40;36.90
12060;DHT22;6091;51.432;6.880;2023-04-25T04:43:12;22.40;37.50
12060;DHT22;6091;51.432;6.880;2023-04-25T04:45:39;22.40;37.00
12060;DHT22;6091;51.432;6.880;2023-04-25T04:48:07;22.50;37.60
12060;DHT22;6091;51.432;6.880;2023-04-25T04:50:35;22.40;37.50
12060;DHT22;6091;51.432;6.880;2023-04-25T04:53:03;22.40;37.50
12060;DHT22;6091;51.432;6.880;2023-04-25T04:55:30;22.40;38.10
12060;DHT22;6091;51.432;6.880;2023-04-25T04:57:58;22.40;36.90
12060;DHT22;6091;51.432;6.880;2023-04-25T05:00:25;22.40;36.90
12060;DHT22;6091;51.432;6.880;2023-04-25T05:02:56;22.40;37.00
12060;DHT22;6091;51.432;6.880;2023-04-25T05:05:23;22.40;37.00
12060;DHT22;6091;51.432;6.880;2023-04-25T05:07:50;22.40;37.00
12060;DHT22;6091;51.432;6.880;2023-04-25T05:12:47;22.30;36.90
12060;DHT22;6091;51.432;6.880;2023-04-25T05:15:14;22.30;36.90
12060;DHT22;6091;51.432;6.880;2023-04-25T05:17:41;22.30;36.90
12060;DHT22;6091;51.432;6.880;2023-04-25T05:20:08;24.70;39.40
12060;DHT22;6091;51.432;6.880;2023-04-25T05:22:36;22.30;36.90
12060;DHT22;6091;51.432;6.880;2023-04-25T05:25:03;22.40;36.90
12060;DHT22;6091;51.432;6.880;2023-04-25T05:27:31;22.40;37.50
12060;DHT22;6091;51.432;6.880;2023-04-25T05:29:58;22.40;37.50
12060;DHT22;6091;51.432;6.880;2023-04-25T05:32:26;22.40;37.10
12060;DHT22;6091;51.432;6.880;2023-04-25T05:34:53;22.30;37.70
12060;DHT22;6091;51.432;6.880;2023-04-25T05:37:20;22.40;37.80
12060;DHT22;6091;51.432;6.880;2023-04-25T05:39:48;22.40;38.00
12060;DHT22;6091;51.432;6.880;2023-04-25T05:42:18;22.40;38.10
12060;DHT22;6091;51.432;6.880;2023-04-25T05:44:45;22.50;38.10
12060;DHT22;6091;51.432;6.880;2023-04-25T05:47:15;22.40;38.60
12060;DHT22;6091;51.432;6.880;2023-04-25T05:49:42;22.60;38.60
12060;DHT22;6091;51.432;6.880;2023-04-25T05:52:08;22.60;39.30
12060;DHT22;6091;51.432;6.880;2023-04-25T05:54:36;22.80;39.30
12060;DHT22;6091;51.432;6.880;2023-04-25T05:57:05;22.90;39.30
12060;DHT22;6091;51.432;6.880;2023-04-25T05:59:33;23.20;38.40
12060;DHT22;6091;51.432;6.880;2023-04-25T06:02:00;23.20;38.90
12060;DHT22;6091;51.432;6.880;2023-04-25T06:06:55;23.80;38.30
12060;DHT22;6091;51.432;6.880;2023-04-25T06:09:22;23.90;38.30
12060;DHT22;6091;51.432;6.880;2023-04-25T06:11:49;23.90;38.90
12060;DHT22;6091;51.432;6.880;2023-04-25T06:14:16;24.10;38.80
12060;DHT22;6091;51.432;6.880;2023-04-25T06:16:44;24.20;39.10
12060;DHT22;6091;51.432;6.880;2023-04-25T06:19:11;24.30;38.70
12060;DHT22;6091;51.432;6.880;2023-04-25T06:21:38;24.50;38.10
12060;DHT22;6091;51.432;6.880;2023-04-25T06:24:05;24.60;38.60
12060;DHT22;6091;51.432;6.880;2023-04-25T06:26:32;24.70;38.00
12060;DHT22;6091;51.432;6.880;2023-04-25T06:28:59;24.80;38.50
12060;DHT22;6091;51.432;6.880;2023-04-25T06:31:26;25.00;37.90
12060;DHT22;6091;51.432;6.880;2023-04-25T06:33:54;25.10;37.90
12060;DHT22;6091;51.432;6.880;2023-04-25T06:36:21;25.20;37.70
12060;DHT22;6091;51.432;6.880;2023-04-25T06:38:51;25.30;37.70
12060;DHT22;6091;51.432;6.880;2023-04-25T06:41:21;25.40;37.70
12060;DHT22;6091;51.432;6.880;2023-04-25T06:43:48;25.30;38.10
12060;DHT22;6091;51.432;6.880;2023-04-25T06:48:43;25.50;37.30
12060;DHT22;6091;51.432;6.880;2023-04-25T06:51:10;25.50;37.80
12060;DHT22;6091;51.432;6.880;2023-04-25T06:53:37;25.60;37.30
12060;DHT22;6091;51.432;6.880;2023-04-25T06:56:04;25.70;37.30
12060;DHT22;6091;51.432;6.880;2023-04-25T06:58:32;25.70;37.20
12060;DHT22;6091;51.432;6.880;2023-04-25T07:00:59;25.70;37.00
12060;DHT22;6091;51.432;6.880;2023-04-25T07:03:26;25.70;37.50
12060;DHT22;6091;51.432;6.880;2023-04-25T07:08:21;25.80;36.80
12060;DHT22;6091;51.432;6.880;2023-04-25T07:10:51;25.80;36.90
12060;DHT22;6091;51.432;6.880;2023-04-25T07:13:19;25.80;37.30
12060;DHT22;6091;51.432;6.880;2023-04-25T07:15:46;25.80;37.30
12060;DHT22;6091;51.432;6.880;2023-04-25T07:18:14;25.80;37.20
12060;DHT22;6091;51.432;6.880;2023-04-25T07:20:42;25.80;36.60
12060;DHT22;6091;51.432;6.880;2023-04-25T07:23:09;25.80;36.60
12060;DHT22;6091;51.432;6.880;2023-04-25T07:25:37;25.80;36.60
12060;DHT22;6091;51.432;6.880;2023-04-25T07:28:04;25.80;36.50
12060;DHT22;6091;51.432;6.880;2023-04-25T07:30:31;25.80;36.40
12060;DHT22;6091;51.432;6.880;2023-04-25T07:32:58;25.80;36.90
12060;DHT22;6091;51.432;6.880;2023-04-25T07:35:25;25.80;36.40
12060;DHT22;6091;51.432;6.880;2023-04-25T07:37:53;25.70;36.40
12060;DHT22;6091;51.432;6.880;2023-04-25T07:42:51;25.70;36.40
12060;DHT22;6091;51.432;6.880;2023-04-25T07:47:48;25.60;36.50
12060;DHT22;6091;51.432;6.880;2023-04-25T07:50:16;25.60;36.50
12060;DHT22;6091;51.432;6.880;2023-04-25T07:52:43;25.60;36.50
12060;DHT22;6091;51.432;6.880;2023-04-25T07:55:10;25.60;36.50
12060;DHT22;6091;51.432;6.880;2023-04-25T08:00:08;25.60;36.50
12060;DHT22;6091;51.432;6.880;2023-04-25T08:07:38;25.60;36.50
12060;DHT22;6091;51.432;6.880;2023-04-25T08:10:09;25.60;36.40
12060;DHT22;6091;51.432;6.880;2023-04-25T08:12:36;25.60;36.40
12060;DHT22;6091;51.432;6.880;2023-04-25T08:15:05;25.60;37.00
12060;DHT22;6091;51.432;6.880;2023-04-25T08:17:33;25.60;37.00
12060;DHT22;6091;51.432;6.880;2023-04-25T08:20:00;25.60;36.50
12060;DHT22;6091;51.432;6.880;2023-04-25T08:22:30;25.60;37.00
12060;DHT22;6091;51.432;6.880;2023-04-25T08:24:57;25.60;36.30
12060;DHT22;6091;51.432;6.880;2023-04-25T08:27:24;25.60;36.40
12060;DHT22;6091;51.432;6.880;2023-04-25T08:29:52;25.60;36.40
12060;DHT22;6091;51.432;6.880;2023-04-25T08:32:19;25.60;36.90
12060;DHT22;6091;51.432;6.880;2023-04-25T08:34:47;25.60;36.30
12060;DHT22;6091;51.432;6.880;2023-04-25T08:37:15;25.40;36.30
12060;DHT22;6091;51.432;6.880;2023-04-25T08:39:42;25.60;36.40
12060;DHT22;6091;51.432;6.880;2023-04-25T08:42:09;25.30;36.70
12060;DHT22;6091;51.432;6.880;2023-04-25T08:44:38;25.70;36.40
12060;DHT22;6091;51.432;6.880;2023-04-25T08:47:06;25.80;36.50
12060;DHT22;6091;51.432;6.880;2023-04-25T08:49:34;25.80;36.40
12060;DHT22;6091;51.432;6.880;2023-04-25T08:52:04;25.70;36.30
12060;DHT22;6091;51.432;6.880;2023-04-25T08:54:33;25.70;36.30
12060;DHT22;6091;51.432;6.880;2023-04-25T08:57:04;25.90;36.50
12060;DHT22;6091;51.432;6.880;2023-04-25T08:59:39;25.80;36.40
12060;DHT22;6091;51.432;6.880;2023-04-25T09:02:12;25.80;36.20
12060;DHT22;6091;51.432;6.880;2023-04-25T09:04:44;25.90;36.30
12060;DHT22;6091;51.432;6.880;2023-04-25T09:09:42;25.90;36.20
12060;DHT22;6091;51.432;6.880;2023-04-25T09:12:10;25.90;36.30
12060;DHT22;6091;51.432;6.880;2023-04-25T09:14:38;26.00;36.30
12060;DHT22;6091;51.432;6.880;2023-04-25T09:17:05;25.90;36.20
12060;DHT22;6091;51.432;6.880;2023-04-25T09:19:36;26.00;36.10
12060;DHT22;6091;51.432;6.880;2023-04-25T09:22:08;26.00;36.10
12060;DHT22;6091;51.432;6.880;2023-04-25T09:24:40;25.90;36.10
12060;DHT22;6091;51.432;6.880;2023-04-25T09:27:12;25.90;36.30
12060;DHT22;6091;51.432;6.880;2023-04-25T09:29:44;26.00;36.30
12060;DHT22;6091;51.432;6.880;2023-04-25T09:32:20;26.00;36.10
12060;DHT22;6091;51.432;6.880;2023-04-25T09:34:52;26.10;36.30
12060;DHT22;6091;51.432;6.880;2023-04-25T09:39:58;26.10;36.10
12060;DHT22;6091;51.432;6.880;2023-04-25T09:44:59;26.20;35.00
12060;DHT22;6091;51.432;6.880;2023-04-25T09:49:57;26.20;33.30
12060;DHT22;6091;51.432;6.880;2023-04-25T09:54:57;26.00;32.00
12060;DHT22;6091;51.432;6.880;2023-04-25T09:57:24;26.10;32.90
12060;DHT22;6091;51.432;6.880;2023-04-25T09:59:54;25.90;31.30
12060;DHT22;6091;51.432;6.880;2023-04-25T10:02:25;25.80;32.30
12060;DHT22;6091;51.432;6.880;2023-04-25T10:04:57;25.80;32.30
12060;DHT22;6091;51.432;6.880;2023-04-25T10:07:30;25.80;32.60
12060;DHT22;6091;51.432;6.880;2023-04-25T10:10:02;25.80;32.00
12060;DHT22;6091;51.432;6.880;2023-04-25T10:12:32;25.80;32.80
12060;DHT22;6091;51.432;6.880;2023-04-25T10:15:01;25.70;32.70
12060;DHT22;6091;51.432;6.880;2023-04-25T10:17:30;25.80;32.70
12060;DHT22;6091;51.432;6.880;2023-04-25T10:20:02;25.70;32.50
12060;DHT22;6091;51.432;6.880;2023-04-25T10:22:41;25.90;33.10
12060;DHT22;6091;51.432;6.880;2023-04-25T10:25:11;25.90;33.30
12060;DHT22;6091;51.432;6.880;2023-04-25T10:27:40;26.00;33.40
12060;DHT22;6091;51.432;6.880;2023-04-25T10:30:15;25.90;33.20
12060;DHT22;6091;51.432;6.880;2023-04-25T10:32:43;26.10;33.50
12060;DHT22;6091;51.432;6.880;2023-04-25T10:35:17;26.20;33.50
12060;DHT22;6091;51.432;6.880;2023-04-25T10:38:08;26.20;33.90
12060;DHT22;6091;51.432;6.880;2023-04-25T10:40:37;26.30;33.70
12060;DHT22;6091;51.432;6.880;2023-04-25T10:46:01;26.60;34.00
12060;DHT22;6091;51.432;6.880;2023-04-25T10:48:54;26.60;33.40
12060;DHT22;6091;51.432;6.880;2023-04-25T10:51:27;26.80;33.80
12060;DHT22;6091;51.432;6.880;2023-04-25T10:54:17;26.90;33.70
12060;DHT22;6091;51.432;6.880;2023-04-25T10:56:48;26.90;33.60
12060;DHT22;6091;51.432;6.880;2023-04-25T10:59:19;27.70;33.80
12060;DHT22;6091;51.432;6.880;2023-04-25T11:01:52;27.00;33.20
12060;DHT22;6091;51.432;6.880;2023-04-25T11:04:24;27.00;33.40
12060;DHT22;6091;51.432;6.880;2023-04-25T11:09:35;27.00;33.30
12060;DHT22;6091;51.432;6.880;2023-04-25T11:12:07;26.90;33.20
12060;DHT22;6091;51.432;6.880;2023-04-25T11:14:36;26.90;33.00
12060;DHT22;6091;51.432;6.880;2023-04-25T11:17:04;27.00;33.10
12060;DHT22;6091;51.432;6.880;2023-04-25T11:19:33;26.90;33.20
12060;DHT22;6091;51.432;6.880;2023-04-25T11:22:03;26.80;33.20
12060;DHT22;6091;51.432;6.880;2023-04-25T11:24:33;26.80;33.10
12060;DHT22;6091;51.432;6.880;2023-04-25T11:27:02;26.90;33.30
12060;DHT22;6091;51.432;6.880;2023-04-25T11:29:32;26.80;33.80
12060;DHT22;6091;51.432;6.880;2023-04-25T11:32:01;26.80;33.20
12060;DHT22;6091;51.432;6.880;2023-04-25T11:34:30;26.60;33.10
12060;DHT22;6091;51.432;6.880;2023-04-25T11:37:00;26.80;33.20
12060;DHT22;6091;51.432;6.880;2023-04-25T11:39:32;26.90;33.40
12060;DHT22;6091;51.432;6.880;2023-04-25T11:42:00;26.70;33.20
12060;DHT22;6091;51.432;6.880;2023-04-25T11:44:32;24.60;31.80
12060;DHT22;6091;51.432;6.880;2023-04-25T11:46:59;26.80;33.90
12060;DHT22;6091;51.432;6.880;2023-04-25T11:49:31;26.80;33.30
12060;DHT22;6091;51.432;6.880;2023-04-25T11:54:27;26.80;33.30
12060;DHT22;6091;51.432;6.880;2023-04-25T11:56:54;26.80;33.20
12060;DHT22;6091;51.432;6.880;2023-04-25T11:59:24;26.70;33.70
12060;DHT22;6091;51.432;6.880;2023-04-25T12:01:53;26.70;31.90
12060;DHT22;6091;51.432;6.880;2023-04-25T12:04:25;26.70;30.90
12060;DHT22;6091;51.432;6.880;2023-04-25T12:06:57;26.60;31.40
12060;DHT22;6091;51.432;6.880;2023-04-25T12:09:32;26.50;31.10
12060;DHT22;6091;51.432;6.880;2023-04-25T12:12:01;26.30;30.60
12060;DHT22;6091;51.432;6.880;2023-04-25T12:14:34;26.10;30.70
12060;DHT22;6091;51.432;6.880;2023-04-25T12:17:03;26.20;31.10
12060;DHT22;6091;51.432;6.880;2023-04-25T12:19:37;26.10;30.80
12060;DHT22;6091;51.432;6.880;2023-04-25T12:22:24;26.00;31.20
12060;DHT22;6091;51.432;6.880;2023-04-25T12:24:52;26.00;30.80
12060;DHT22;6091;51.432;6.880;2023-04-25T12:27:21;26.00;31.50
12060;DHT22;6091;51.432;6.880;2023-04-25T12:29:53;25.90;31.90
12060;DHT22;6091;51.432;6.880;2023-04-25T12:32:24;26.00;31.80
12060;DHT22;6091;51.432;6.880;2023-04-25T12:34:53;25.90;32.00
12060;DHT22;6091;51.432;6.880;2023-04-25T12:37:21;26.20;32.50
12060;DHT22;6091;51.432;6.880;2023-04-25T12:39:48;26.20;32.90
12060;DHT22;6091;51.432;6.880;2023-04-25T12:42:15;26.40;32.60
12060;DHT22;6091;51.432;6.880;2023-04-25T12:44:46;27.00;33.10
12060;DHT22;6091;51.432;6.880;2023-04-25T12:47:16;27.30;33.10
12060;DHT22;6091;51.432;6.880;2023-04-25T12:49:46;27.60;33.00
12060;DHT22;6091;51.432;6.880;2023-04-25T12:54:45;28.50;33.00
12060;DHT22;6091;51.432;6.880;2023-04-25T12:59:39;28.80;32.40
12060;DHT22;6091;51.432;6.880;2023-04-25T13:02:07;29.50;32.40
12060;DHT22;6091;51.432;6.880;2023-04-25T13:04:35;29.60;31.40
12060;DHT22;6091;51.432;6.880;2023-04-25T13:07:03;29.70;31.30
12060;DHT22;6091;51.432;6.880;2023-04-25T13:09:30;29.70;31.40
12060;DHT22;6091;51.432;6.880;2023-04-25T13:11:58;29.70;30.50
12060;DHT22;6091;51.432;6.880;2023-04-25T13:14:26;29.60;30.00
12060;DHT22;6091;51.432;6.880;2023-04-25T13:16:53;29.60;30.60
12060;DHT22;6091;51.432;6.880;2023-04-25T13:19:21;29.30;29.90
12060;DHT22;6091;51.432;6.880;2023-04-25T13:21:49;29.20;29.80
12060;DHT22;6091;51.432;6.880;2023-04-25T13:24:16;29.00;29.80
12060;DHT22;6091;51.432;6.880;2023-04-25T13:26:46;28.80;30.30
12060;DHT22;6091;51.432;6.880;2023-04-25T13:29:15;28.50;29.70
12060;DHT22;6091;51.432;6.880;2023-04-25T13:31:50;28.30;30.00
12060;DHT22;6091;51.432;6.880;2023-04-25T13:34:20;28.20;29.90
12060;DHT22;6091;51.432;6.880;2023-04-25T13:36:47;28.10;30.30
12060;DHT22;6091;51.432;6.880;2023-04-25T13:39:14;28.10;30.00
12060;DHT22;6091;51.432;6.880;2023-04-25T13:41:42;28.00;30.50
12060;DHT22;6091;51.432;6.880;2023-04-25T13:44:11;28.00;30.60
12060;DHT22;6091;51.432;6.880;2023-04-25T13:46:39;28.10;30.60
12060;DHT22;6091;51.432;6.880;2023-04-25T13:51:41;28.10;30.70
12060;DHT22;6091;51.432;6.880;2023-04-25T13:54:09;28.20;30.70
12060;DHT22;6091;51.432;6.880;2023-04-25T13:56:37;28.40;30.80
12060;DHT22;6091;51.432;6.880;2023-04-25T13:59:11;28.40;30.60
12060;DHT22;6091;51.432;6.880;2023-04-25T14:01:39;28.30;30.50
12060;DHT22;6091;51.432;6.880;2023-04-25T14:06:40;28.30;30.00
12060;DHT22;6091;51.432;6.880;2023-04-25T14:09:08;28.10;30.00
12060;DHT22;6091;51.432;6.880;2023-04-25T14:11:37;28.10;30.00
12060;DHT22;6091;51.432;6.880;2023-04-25T14:14:07;28.10;30.40
12060;DHT22;6091;51.432;6.880;2023-04-25T14:19:02;28.00;30.00
12060;DHT22;6091;51.432;6.880;2023-04-25T14:21:30;27.90;30.00
12060;DHT22;6091;51.432;6.880;2023-04-25T14:23:59;27.80;30.40
12060;DHT22;6091;51.432;6.880;2023-04-25T14:26:26;27.60;29.90
12060;DHT22;6091;51.432;6.880;2023-04-25T14:31:20;27.50;30.00
12060;DHT22;6091;51.432;6.880;2023-04-25T14:33:48;27.40;30.10
12060;DHT22;6091;51.432;6.880;2023-04-25T14:36:18;27.30;30.10
12060;DHT22;6091;51.432;6.880;2023-04-25T14:38:45;27.20;30.20
12060;DHT22;6091;51.432;6.880;2023-04-25T14:41:13;27.20;30.20
12060;DHT22;6091;51.432;6.880;2023-04-25T14:43:40;27.20;30.30
12060;DHT22;6091;51.432;6.880;2023-04-25T14:46:08;27.10;30.30
12060;DHT22;6091;51.432;6.880;2023-04-25T14:48:36;27.00;30.30
12060;DHT22;6091;51.432;6.880;2023-04-25T14:51:04;27.00;30.30
12060;DHT22;6091;51.432;6.880;2023-04-25T14:53:32;26.90;30.80
12060;DHT22;6091;51.432;6.880;2023-04-25T14:55:59;26.60;30.70
12060;DHT22;6091;51.432;6.880;2023-04-25T14:58:27;26.50;30.60
12060;DHT22;6091;51.432;6.880;2023-04-25T15:03:22;26.50;30.50
12060;DHT22;6091;51.432;6.880;2023-04-25T15:05:49;26.50;31.00
12060;DHT22;6091;51.432;6.880;2023-04-25T15:08:17;26.60;30.70
12060;DHT22;6091;51.432;6.880;2023-04-25T15:10:45;26.50;30.70
12060;DHT22;6091;51.432;6.880;2023-04-25T15:13:13;26.70;31.50
12060;DHT22;6091;51.432;6.880;2023-04-25T15:15:40;26.80;31.00
12060;DHT22;6091;51.432;6.880;2023-04-25T15:18:07;26.90;31.10
12060;DHT22;6091;51.432;6.880;2023-04-25T15:20:35;27.20;31.30
12060;DHT22;6091;51.432;6.880;2023-04-25T15:23:02;27.30;31.80
12060;DHT22;6091;51.432;6.880;2023-04-25T15:25:31;27.50;31.80
12060;DHT22;6091;51.432;6.880;2023-04-25T15:30:27;27.90;31.20
12060;DHT22;6091;51.432;6.880;2023-04-25T15:32:54;28.10;31.20
12060;DHT22;6091;51.432;6.880;2023-04-25T15:35:22;28.10;31.10
12060;DHT22;6091;51.432;6.880;2023-04-25T15:37:48;28.30;31.60
12060;DHT22;6091;51.432;6.880;2023-04-25T15:40:17;28.40;31.50
12060;DHT22;6091;51.432;6.880;2023-04-25T15:42:52;28.60;31.30
12060;DHT22;6091;51.432;6.880;2023-04-25T15:45:21;28.80;30.70
12060;DHT22;6091;51.432;6.880;2023-04-25T15:47:52;28.80;30.60
12060;DHT22;6091;51.432;6.880;2023-04-25T15:50:21;28.90;30.60
12060;DHT22;6091;51.432;6.880;2023-04-25T15:52:50;28.90;30.90
12060;DHT22;6091;51.432;6.880;2023-04-25T15:55:19;29.00;30.30
12060;DHT22;6091;51.432;6.880;2023-04-25T15:57:52;29.00;29.90
12060;DHT22;6091;51.432;6.880;2023-04-25T16:00:20;29.10;30.00
12060;DHT22;6091;51.432;6.880;2023-04-25T16:05:18;29.10;29.90
12060;DHT22;6091;51.432;6.880;2023-04-25T16:07:47;29.10;30.20
12060;DHT22;6091;51.432;6.880;2023-04-25T16:10:14;29.10;30.10
12060;DHT22;6091;51.432;6.880;2023-04-25T16:12:46;29.00;29.40
12060;DHT22;6091;51.432;6.880;2023-04-25T16:15:14;28.90;29.90
12060;DHT22;6091;51.432;6.880;2023-04-25T16:17:42;28.70;29.30
12060;DHT22;6091;51.432;6.880;2023-04-25T16:20:10;28.70;29.60
12060;DHT22;6091;51.432;6.880;2023-04-25T16:22:40;28.60;29.50
12060;DHT22;6091;51.432;6.880;2023-04-25T16:25:08;28.50;29.50
12060;DHT22;6091;51.432;6.880;2023-04-25T16:27:37;28.30;28.90
12060;DHT22;6091;51.432;6.880;2023-04-25T16:30:07;28.10;29.00
12060;DHT22;6091;51.432;6.880;2023-04-25T16:32:36;28.00;28.90
12060;DHT22;6091;51.432;6.880;2023-04-25T16:35:04;27.90;29.40
12060;DHT22;6091;51.432;6.880;2023-04-25T16:37:32;27.80;28.90
12060;DHT22;6091;51.432;6.880;2023-04-25T16:39:59;27.70;29.40
12060;DHT22;6091;51.432;6.880;2023-04-25T16:42:26;27.60;29.30
12060;DHT22;6091;51.432;6.880;2023-04-25T16:44:53;27.50;29.30
12060;DHT22;6091;51.432;6.880;2023-04-25T16:47:21;27.40;29.70
12060;DHT22;6091;51.432;6.880;2023-04-25T16:49:51;27.20;28.90
12060;DHT22;6091;51.432;6.880;2023-04-25T16:52:18;27.10;28.80
12060;DHT22;6091;51.432;6.880;2023-04-25T16:57:15;27.00;28.80
12060;DHT22;6091;51.432;6.880;2023-04-25T16:59:42;26.90;28.80
12060;DHT22;6091;51.432;6.880;2023-04-25T17:02:11;26.80;29.30